sensor_id;sensor_type;location;lat;lon;timestamp;P1;durP1;ratioP1;P2;durP2;ratioP2
15408;SDS011;7803;48.130;13.788;2023-06-22T00:01:42;4.72;;;4.32;;
15408;SDS011;7803;48.130;13.788;2023-06-22T00:04:44;5.65;;;5.03;;
15408;SDS011;7803;48.130;13.788;2023-06-22T00:07:47;4.93;;;4.47;;
15408;SDS011;7803;48.130;13.788;2023-06-22T00:10:49;5.22;;;4.72;;
15408;SDS011;7803;48.130;13.788;2023-06-22T00:13:51;5.53;;;5.03;;
15408;SDS011;7803;48.130;13.788;2023-06-22T00:16:53;5.63;;;5.10;;
15408;SDS011;7803;48.130;13.788;2023-06-22T00:19:57;5.63;;;5.05;;
15408;SDS011;7803;48.130;13.788;2023-06-22T00:23:01;7.13;;;5.60;;
15408;SDS011;7803;48.130;13.788;2023-06-22T00:26:08;5.82;;;5.30;;
15408;SDS011;7803;48.130;13.788;2023-06-22T00:29:10;5.97;;;5.35;;
15408;SDS011;7803;48.130;13.788;2023-06-22T00:32:12;5.45;;;4.90;;
15408;SDS011;7803;48.130;13.788;2023-06-22T00:35:14;5.70;;;5.20;;
15408;SDS011;7803;48.130;13.788;2023-06-22T00:38:17;5.93;;;5.32;;
15408;SDS011;7803;48.130;13.788;2023-06-22T00:41:19;6.07;;;5.57;;
15408;SDS011;7803;48.130;13.788;2023-06-22T00:44:21;6.25;;;5.65;;
15408;SDS011;7803;48.130;13.788;2023-06-22T00:47:23;5.90;;;5.35;;
15408;SDS011;7803;48.130;13.788;2023-06-22T00:50:26;5.80;;;5.30;;
15408;SDS011;7803;48.130;13.788;2023-06-22T00:53:35;5.70;;;5.20;;
15408;SDS011;7803;48.130;13.788;2023-06-22T00:56:37;5.50;;;5.00;;
15408;SDS011;7803;48.130;13.788;2023-06-22T00:59:39;6.40;;;5.63;;
15408;SDS011;7803;48.130;13.788;2023-06-22T01:02:41;6.22;;;5.63;;
15408;SDS011;7803;48.130;13.788;2023-06-22T01:05:45;5.95;;;5.43;;
15408;SDS011;7803;48.130;13.788;2023-06-22T01:08:51;6.43;;;5.80;;
15408;SDS011;7803;48.130;13.788;2023-06-22T01:12:02;6.05;;;5.45;;
15408;SDS011;7803;48.130;13.788;2023-06-22T01:15:08;5.97;;;5.43;;
15408;SDS011;7803;48.130;13.788;2023-06-22T01:18:12;6.28;;;5.68;;
15408;SDS011;7803;48.130;13.788;2023-06-22T01:21:16;6.88;;;6.25;;
15408;SDS011;7803;48.130;13.788;2023-06-22T01:24:22;6.50;;;5.80;;
15408;SDS011;7803;48.130;13.788;2023-06-22T01:27:32;6.63;;;6.00;;
15408;SDS011;7803;48.130;13.788;2023-06-22T01:30:42;6.97;;;6.32;;
15408;SDS011;7803;48.130;13.788;2023-06-22T01:33:48;6.65;;;6.05;;
15408;SDS011;7803;48.130;13.788;2023-06-22T01:36:53;6.75;;;5.97;;
15408;SDS011;7803;48.130;13.788;2023-06-22T01:39:56;6.50;;;5.90;;
15408;SDS011;7803;48.130;13.788;2023-06-22T01:42:59;6.68;;;6.07;;
15408;SDS011;7803;48.130;13.788;2023-06-22T01:46:03;6.47;;;5.88;;
15408;SDS011;7803;48.130;13.788;2023-06-22T01:49:05;6.72;;;6.13;;
15408;SDS011;7803;48.130;13.788;2023-06-22T01:52:08;6.45;;;5.85;;
15408;SDS011;7803;48.130;13.788;2023-06-22T01:55:10;6.90;;;6.20;;
15408;SDS011;7803;48.130;13.788;2023-06-22T01:58:13;6.80;;;6.13;;
15408;SDS011;7803;48.130;13.788;2023-06-22T02:01:18;6.85;;;6.18;;
15408;SDS011;7803;48.130;13.788;2023-06-22T02:04:26;6.30;;;5.70;;
15408;SDS011;7803;48.130;13.788;2023-06-22T02:07:37;6.82;;;6.13;;
15408;SDS011;7803;48.130;13.788;2023-06-22T02:10:46;6.93;;;6.32;;
15408;SDS011;7803;48.130;13.788;2023-06-22T02:13:49;7.10;;;6.45;;
15408;SDS011;7803;48.130;13.788;2023-06-22T02:16:53;7.32;;;6.63;;
15408;SDS011;7803;48.130;13.788;2023-06-22T02:19:59;7.40;;;6.70;;
15408;SDS011;7803;48.130;13.788;2023-06-22T02:23:02;7.57;;;6.78;;
15408;SDS011;7803;48.130;13.788;2023-06-22T02:26:04;7.47;;;6.78;;
15408;SDS011;7803;48.130;13.788;2023-06-22T02:29:07;7.50;;;6.80;;
15408;SDS011;7803;48.130;13.788;2023-06-22T02:32:10;7.32;;;6.63;;
15408;SDS011;7803;48.130;13.788;2023-06-22T02:35:12;7.65;;;6.95;;
15408;SDS011;7803;48.130;13.788;2023-06-22T02:38:14;7.30;;;6.60;;
15408;SDS011;7803;48.130;13.788;2023-06-22T02:41:17;8.00;;;7.00;;
15408;SDS011;7803;48.130;13.788;2023-06-22T02:44:19;7.85;;;7.15;;
15408;SDS011;7803;48.130;13.788;2023-06-22T02:47:23;7.88;;;7.10;;
15408;SDS011;7803;48.130;13.788;2023-06-22T02:50:25;7.40;;;6.72;;
15408;SDS011;7803;48.130;13.788;2023-06-22T02:53:27;7.28;;;6.57;;
15408;SDS011;7803;48.130;13.788;2023-06-22T02:56:29;7.40;;;6.70;;
15408;SDS011;7803;48.130;13.788;2023-06-22T02:59:31;7.53;;;6.82;;
15408;SDS011;7803;48.130;13.788;2023-06-22T03:02:34;7.25;;;6.53;;
15408;SDS011;7803;48.130;13.788;2023-06-22T03:05:36;7.25;;;6.55;;
15408;SDS011;7803;48.130;13.788;2023-06-22T03:08:40;8.02;;;7.22;;
15408;SDS011;7803;48.130;13.788;2023-06-22T03:11:42;8.80;;;7.90;;
15408;SDS011;7803;48.130;13.788;2023-06-22T03:14:44;8.38;;;7.53;;
15408;SDS011;7803;48.130;13.788;2023-06-22T03:17:48;8.35;;;7.57;;
15408;SDS011;7803;48.130;13.788;2023-06-22T03:20:50;7.75;;;7.05;;
15408;SDS011;7803;48.130;13.788;2023-06-22T03:23:52;8.05;;;7.35;;
15408;SDS011;7803;48.130;13.788;2023-06-22T03:26:54;8.38;;;7.57;;
15408;SDS011;7803;48.130;13.788;2023-06-22T03:29:56;7.55;;;6.85;;
15408;SDS011;7803;48.130;13.788;2023-06-22T03:33:01;8.15;;;7.45;;
15408;SDS011;7803;48.130;13.788;2023-06-22T03:36:03;7.90;;;7.20;;
15408;SDS011;7803;48.130;13.788;2023-06-22T03:39:05;8.05;;;7.32;;
15408;SDS011;7803;48.130;13.788;2023-06-22T03:42:07;8.32;;;7.53;;
15408;SDS011;7803;48.130;13.788;2023-06-22T03:45:09;8.35;;;7.55;;
15408;SDS011;7803;48.130;13.788;2023-06-22T03:48:13;8.38;;;7.68;;
15408;SDS011;7803;48.130;13.788;2023-06-22T03:51:15;7.88;;;7.07;;
15408;SDS011;7803;48.130;13.788;2023-06-22T03:54:17;8.43;;;7.65;;
15408;SDS011;7803;48.130;13.788;2023-06-22T03:57:19;8.43;;;7.63;;
15408;SDS011;7803;48.130;13.788;2023-06-22T04:00:21;7.97;;;7.18;;
15408;SDS011;7803;48.130;13.788;2023-06-22T04:03:25;8.75;;;7.95;;
15408;SDS011;7803;48.130;13.788;2023-06-22T04:06:27;8.50;;;7.70;;
15408;SDS011;7803;48.130;13.788;2023-06-22T04:09:29;9.05;;;8.18;;
15408;SDS011;7803;48.130;13.788;2023-06-22T04:12:31;8.77;;;7.97;;
15408;SDS011;7803;48.130;13.788;2023-06-22T04:15:33;8.70;;;7.90;;
15408;SDS011;7803;48.130;13.788;2023-06-22T04:18:36;8.20;;;7.50;;
15408;SDS011;7803;48.130;13.788;2023-06-22T04:21:38;8.77;;;7.90;;
15408;SDS011;7803;48.130;13.788;2023-06-22T04:24:40;8.82;;;8.02;;
15408;SDS011;7803;48.130;13.788;2023-06-22T04:27:42;9.02;;;8.13;;
15408;SDS011;7803;48.130;13.788;2023-06-22T04:30:45;9.07;;;8.27;;
15408;SDS011;7803;48.130;13.788;2023-06-22T04:33:48;9.20;;;8.35;;
15408;SDS011;7803;48.130;13.788;2023-06-22T04:36:51;9.23;;;8.32;;
15408;SDS011;7803;48.130;13.788;2023-06-22T04:39:53;9.20;;;8.30;;
15408;SDS011;7803;48.130;13.788;2023-06-22T04:42:55;9.60;;;8.63;;
15408;SDS011;7803;48.130;13.788;2023-06-22T04:45:57;8.82;;;8.02;;
15408;SDS011;7803;48.130;13.788;2023-06-22T04:49:05;8.90;;;8.10;;
15408;SDS011;7803;48.130;13.788;2023-06-22T04:52:10;8.65;;;7.82;;
15408;SDS011;7803;48.130;13.788;2023-06-22T04:55:14;8.93;;;8.13;;
15408;SDS011;7803;48.130;13.788;2023-06-22T04:58:18;9.30;;;8.50;;
15408;SDS011;7803;48.130;13.788;2023-06-22T05:01:21;9.38;;;8.50;;
15408;SDS011;7803;48.130;13.788;2023-06-22T05:04:24;9.15;;;8.25;;
15408;SDS011;7803;48.130;13.788;2023-06-22T05:07:28;8.85;;;8.02;;
15408;SDS011;7803;48.130;13.788;2023-06-22T05:10:30;8.90;;;8.00;;
15408;SDS011;7803;48.130;13.788;2023-06-22T05:13:32;8.80;;;8.00;;
15408;SDS011;7803;48.130;13.788;2023-06-22T05:16:34;9.35;;;8.43;;
15408;SDS011;7803;48.130;13.788;2023-06-22T05:19:37;8.80;;;7.97;;
15408;SDS011;7803;48.130;13.788;2023-06-22T05:22:39;8.63;;;7.72;;
15408;SDS011;7803;48.130;13.788;2023-06-22T05:25:43;8.55;;;7.75;;
15408;SDS011;7803;48.130;13.788;2023-06-22T05:28:45;8.77;;;7.97;;
15408;SDS011;7803;48.130;13.788;2023-06-22T05:31:47;8.82;;;8.02;;
15408;SDS011;7803;48.130;13.788;2023-06-22T05:34:50;8.50;;;7.65;;
15408;SDS011;7803;48.130;13.788;2023-06-22T05:37:52;9.13;;;8.23;;
15408;SDS011;7803;48.130;13.788;2023-06-22T05:40:55;8.98;;;7.75;;
15408;SDS011;7803;48.130;13.788;2023-06-22T05:43:57;8.35;;;7.57;;
15408;SDS011;7803;48.130;13.788;2023-06-22T05:46:59;8.55;;;7.75;;
15408;SDS011;7803;48.130;13.788;2023-06-22T05:50:02;8.32;;;7.53;;
15408;SDS011;7803;48.130;13.788;2023-06-22T05:53:06;8.05;;;7.32;;
15408;SDS011;7803;48.130;13.788;2023-06-22T05:56:08;8.00;;;7.22;;
15408;SDS011;7803;48.130;13.788;2023-06-22T05:59:10;8.63;;;7.82;;
15408;SDS011;7803;48.130;13.788;2023-06-22T06:02:13;8.07;;;7.38;;
15408;SDS011;7803;48.130;13.788;2023-06-22T06:05:16;8.57;;;7.68;;
15408;SDS011;7803;48.130;13.788;2023-06-22T06:08:19;8.50;;;7.57;;
15408;SDS011;7803;48.130;13.788;2023-06-22T06:11:21;8.45;;;7.65;;
15408;SDS011;7803;48.130;13.788;2023-06-22T06:14:24;8.38;;;7.57;;
15408;SDS011;7803;48.130;13.788;2023-06-22T06:17:26;8.20;;;7.40;;
15408;SDS011;7803;48.130;13.788;2023-06-22T06:20:29;8.10;;;7.30;;
15408;SDS011;7803;48.130;13.788;2023-06-22T06:23:32;7.50;;;6.80;;
15408;SDS011;7803;48.130;13.788;2023-06-22T06:26:34;7.90;;;7.10;;
15408;SDS011;7803;48.130;13.788;2023-06-22T06:29:36;8.13;;;7.30;;
15408;SDS011;7803;48.130;13.788;2023-06-22T06:32:38;8.15;;;7.35;;
15408;SDS011;7803;48.130;13.788;2023-06-22T06:35:41;7.97;;;7.05;;
15408;SDS011;7803;48.130;13.788;2023-06-22T06:38:43;7.70;;;6.70;;
15408;SDS011;7803;48.130;13.788;2023-06-22T06:41:47;8.30;;;7.50;;
15408;SDS011;7803;48.130;13.788;2023-06-22T06:44:49;8.23;;;7.15;;
15408;SDS011;7803;48.130;13.788;2023-06-22T06:47:51;7.85;;;7.00;;
15408;SDS011;7803;48.130;13.788;2023-06-22T06:50:54;8.07;;;7.28;;
15408;SDS011;7803;48.130;13.788;2023-06-22T06:53:56;8.02;;;7.22;;
15408;SDS011;7803;48.130;13.788;2023-06-22T06:56:58;7.57;;;6.88;;
15408;SDS011;7803;48.130;13.788;2023-06-22T07:00:03;7.60;;;6.90;;
15408;SDS011;7803;48.130;13.788;2023-06-22T07:03:10;7.05;;;6.45;;
15408;SDS011;7803;48.130;13.788;2023-06-22T07:06:14;8.00;;;7.20;;
15408;SDS011;7803;48.130;13.788;2023-06-22T07:09:16;7.70;;;6.97;;
15408;SDS011;7803;48.130;13.788;2023-06-22T07:12:18;7.47;;;6.78;;
15408;SDS011;7803;48.130;13.788;2023-06-22T07:15:21;7.65;;;6.95;;
15408;SDS011;7803;48.130;13.788;2023-06-22T07:18:23;8.35;;;6.78;;
15408;SDS011;7803;48.130;13.788;2023-06-22T07:21:27;7.43;;;6.70;;
15408;SDS011;7803;48.130;13.788;2023-06-22T07:24:30;7.68;;;6.88;;
15408;SDS011;7803;48.130;13.788;2023-06-22T07:27:32;7.15;;;6.45;;
15408;SDS011;7803;48.130;13.788;2023-06-22T07:30:36;7.95;;;7.15;;
15408;SDS011;7803;48.130;13.788;2023-06-22T07:33:38;7.38;;;6.68;;
15408;SDS011;7803;48.130;13.788;2023-06-22T07:36:41;7.68;;;6.88;;
15408;SDS011;7803;48.130;13.788;2023-06-22T07:39:43;7.45;;;6.70;;
15408;SDS011;7803;48.130;13.788;2023-06-22T07:42:45;8.48;;;7.10;;
15408;SDS011;7803;48.130;13.788;2023-06-22T07:45:48;7.30;;;6.60;;
15408;SDS011;7803;48.130;13.788;2023-06-22T07:48:52;7.60;;;6.80;;
15408;SDS011;7803;48.130;13.788;2023-06-22T07:51:55;7.32;;;6.63;;
15408;SDS011;7803;48.130;13.788;2023-06-22T07:54:57;6.93;;;6.32;;
15408;SDS011;7803;48.130;13.788;2023-06-22T07:57:59;6.97;;;6.35;;
15408;SDS011;7803;48.130;13.788;2023-06-22T08:01:01;7.25;;;6.55;;
15408;SDS011;7803;48.130;13.788;2023-06-22T08:04:04;6.50;;;5.90;;
15408;SDS011;7803;48.130;13.788;2023-06-22T08:07:07;7.18;;;6.47;;
15408;SDS011;7803;48.130;13.788;2023-06-22T08:10:10;6.72;;;6.13;;
15408;SDS011;7803;48.130;13.788;2023-06-22T08:13:13;6.95;;;6.25;;
15408;SDS011;7803;48.130;13.788;2023-06-22T08:16:15;7.13;;;6.43;;
15408;SDS011;7803;48.130;13.788;2023-06-22T08:19:17;6.75;;;6.13;;
15408;SDS011;7803;48.130;13.788;2023-06-22T08:22:20;7.05;;;6.38;;
15408;SDS011;7803;48.130;13.788;2023-06-22T08:25:22;7.10;;;6.43;;
15408;SDS011;7803;48.130;13.788;2023-06-22T08:28:25;6.38;;;5.78;;
15408;SDS011;7803;48.130;13.788;2023-06-22T08:31:26;6.95;;;6.30;;
15408;SDS011;7803;48.130;13.788;2023-06-22T08:34:28;6.75;;;6.05;;
15408;SDS011;7803;48.130;13.788;2023-06-22T08:37:32;6.90;;;6.30;;
15408;SDS011;7803;48.130;13.788;2023-06-22T08:40:35;7.45;;;5.95;;
15408;SDS011;7803;48.130;13.788;2023-06-22T08:43:37;6.38;;;5.82;;
15408;SDS011;7803;48.130;13.788;2023-06-22T08:46:39;6.60;;;6.00;;
15408;SDS011;7803;48.130;13.788;2023-06-22T08:49:42;6.45;;;5.53;;
15408;SDS011;7803;48.130;13.788;2023-06-22T08:52:45;6.50;;;5.90;;
15408;SDS011;7803;48.130;13.788;2023-06-22T08:55:48;6.63;;;6.00;;
15408;SDS011;7803;48.130;13.788;2023-06-22T08:58:50;7.00;;;6.28;;
15408;SDS011;7803;48.130;13.788;2023-06-22T09:01:52;6.70;;;6.00;;
15408;SDS011;7803;48.130;13.788;2023-06-22T09:04:54;6.30;;;5.70;;
15408;SDS011;7803;48.130;13.788;2023-06-22T09:07:59;6.30;;;5.70;;
15408;SDS011;7803;48.130;13.788;2023-06-22T09:11:01;6.32;;;5.72;;
15408;SDS011;7803;48.130;13.788;2023-06-22T09:14:03;6.95;;;6.25;;
15408;SDS011;7803;48.130;13.788;2023-06-22T09:17:05;6.40;;;5.80;;
15408;SDS011;7803;48.130;13.788;2023-06-22T09:20:08;6.65;;;5.95;;
15408;SDS011;7803;48.130;13.788;2023-06-22T09:23:12;7.32;;;5.93;;
15408;SDS011;7803;48.130;13.788;2023-06-22T09:26:15;6.30;;;5.70;;
15408;SDS011;7803;48.130;13.788;2023-06-22T09:29:17;6.55;;;5.80;;
15408;SDS011;7803;48.130;13.788;2023-06-22T09:32:19;6.93;;;6.10;;
15408;SDS011;7803;48.130;13.788;2023-06-22T09:35:21;6.55;;;5.88;;
15408;SDS011;7803;48.130;13.788;2023-06-22T09:38:24;6.25;;;5.60;;
15408;SDS011;7803;48.130;13.788;2023-06-22T09:41:26;6.70;;;5.60;;
15408;SDS011;7803;48.130;13.788;2023-06-22T09:44:28;6.03;;;5.43;;
15408;SDS011;7803;48.130;13.788;2023-06-22T09:47:30;6.38;;;5.72;;
15408;SDS011;7803;48.130;13.788;2023-06-22T09:50:32;6.32;;;5.72;;
15408;SDS011;7803;48.130;13.788;2023-06-22T09:53:36;6.07;;;5.45;;
15408;SDS011;7803;48.130;13.788;2023-06-22T09:56:38;6.65;;;6.00;;
15408;SDS011;7803;48.130;13.788;2023-06-22T09:59:40;6.30;;;5.65;;
15408;SDS011;7803;48.130;13.788;2023-06-22T10:02:42;6.15;;;5.43;;
15408;SDS011;7803;48.130;13.788;2023-06-22T10:05:44;6.47;;;5.88;;
15408;SDS011;7803;48.130;13.788;2023-06-22T10:08:48;5.95;;;5.40;;
15408;SDS011;7803;48.130;13.788;2023-06-22T10:11:51;6.10;;;5.50;;
15408;SDS011;7803;48.130;13.788;2023-06-22T10:14:53;6.82;;;5.78;;
15408;SDS011;7803;48.130;13.788;2023-06-22T10:17:55;6.00;;;5.28;;
15408;SDS011;7803;48.130;13.788;2023-06-22T10:20:57;6.22;;;5.63;;
15408;SDS011;7803;48.130;13.788;2023-06-22T10:24:01;5.95;;;5.35;;
15408;SDS011;7803;48.130;13.788;2023-06-22T10:27:06;6.30;;;5.65;;
15408;SDS011;7803;48.130;13.788;2023-06-22T10:30:09;6.47;;;5.47;;
15408;SDS011;7803;48.130;13.788;2023-06-22T10:33:12;6.05;;;5.45;;
15408;SDS011;7803;48.130;13.788;2023-06-22T10:36:14;5.75;;;5.25;;
15408;SDS011;7803;48.130;13.788;2023-06-22T10:39:18;6.05;;;5.32;;
15408;SDS011;7803;48.130;13.788;2023-06-22T10:42:20;6.35;;;5.28;;
15408;SDS011;7803;48.130;13.788;2023-06-22T10:45:22;5.68;;;5.18;;
15408;SDS011;7803;48.130;13.788;2023-06-22T10:48:24;5.80;;;5.30;;
15408;SDS011;7803;48.130;13.788;2023-06-22T10:51:26;6.30;;;5.50;;
15408;SDS011;7803;48.130;13.788;2023-06-22T10:54:29;5.97;;;5.38;;
15408;SDS011;7803;48.130;13.788;2023-06-22T10:57:32;5.85;;;5.30;;
15408;SDS011;7803;48.130;13.788;2023-06-22T11:00:34;6.97;;;6.00;;
15408;SDS011;7803;48.130;13.788;2023-06-22T11:03:37;7.80;;;5.85;;
15408;SDS011;7803;48.130;13.788;2023-06-22T11:06:39;5.68;;;5.18;;
15408;SDS011;7803;48.130;13.788;2023-06-22T11:09:42;5.55;;;5.05;;
15408;SDS011;7803;48.130;13.788;2023-06-22T11:12:44;5.72;;;5.20;;
15408;SDS011;7803;48.130;13.788;2023-06-22T11:15:46;6.82;;;6.07;;
15408;SDS011;7803;48.130;13.788;2023-06-22T11:18:48;5.70;;;5.10;;
15408;SDS011;7803;48.130;13.788;2023-06-22T11:21:50;5.90;;;5.30;;
15408;SDS011;7803;48.130;13.788;2023-06-22T11:24:53;5.80;;;5.20;;
15408;SDS011;7803;48.130;13.788;2023-06-22T11:27:55;5.85;;;5.20;;
15408;SDS011;7803;48.130;13.788;2023-06-22T11:30:57;5.55;;;5.05;;
15408;SDS011;7803;48.130;13.788;2023-06-22T11:34:00;5.47;;;4.97;;
15408;SDS011;7803;48.130;13.788;2023-06-22T11:37:02;6.45;;;5.30;;
15408;SDS011;7803;48.130;13.788;2023-06-22T11:40:07;6.38;;;5.18;;
15408;SDS011;7803;48.130;13.788;2023-06-22T11:43:09;5.60;;;5.10;;
15408;SDS011;7803;48.130;13.788;2023-06-22T11:46:11;6.50;;;5.30;;
15408;SDS011;7803;48.130;13.788;2023-06-22T11:49:13;7.25;;;5.38;;
15408;SDS011;7803;48.130;13.788;2023-06-22T11:52:15;5.70;;;5.10;;
15408;SDS011;7803;48.130;13.788;2023-06-22T11:55:20;6.10;;;5.50;;
15408;SDS011;7803;48.130;13.788;2023-06-22T11:58:22;5.85;;;5.25;;
15408;SDS011;7803;48.130;13.788;2023-06-22T12:01:24;5.90;;;5.10;;
15408;SDS011;7803;48.130;13.788;2023-06-22T12:04:26;5.53;;;5.00;;
15408;SDS011;7803;48.130;13.788;2023-06-22T12:07:28;5.40;;;4.90;;
15408;SDS011;7803;48.130;13.788;2023-06-22T12:10:32;5.82;;;5.22;;
15408;SDS011;7803;48.130;13.788;2023-06-22T12:13:34;6.03;;;4.85;;
15408;SDS011;7803;48.130;13.788;2023-06-22T12:16:36;5.80;;;5.22;;
15408;SDS011;7803;48.130;13.788;2023-06-22T12:19:38;5.47;;;4.90;;
15408;SDS011;7803;48.130;13.788;2023-06-22T12:22:40;5.32;;;4.82;;
15408;SDS011;7803;48.130;13.788;2023-06-22T12:25:45;5.63;;;4.55;;
15408;SDS011;7803;48.130;13.788;2023-06-22T12:28:47;6.65;;;5.30;;
15408;SDS011;7803;48.130;13.788;2023-06-22T12:31:49;6.50;;;4.97;;
15408;SDS011;7803;48.130;13.788;2023-06-22T12:34:51;5.63;;;4.85;;
15408;SDS011;7803;48.130;13.788;2023-06-22T12:37:53;5.15;;;4.65;;
15408;SDS011;7803;48.130;13.788;2023-06-22T12:40:57;5.45;;;4.95;;
15408;SDS011;7803;48.130;13.788;2023-06-22T12:43:59;5.80;;;5.20;;
15408;SDS011;7803;48.130;13.788;2023-06-22T12:47:01;5.80;;;4.70;;
15408;SDS011;7803;48.130;13.788;2023-06-22T12:50:03;5.53;;;4.93;;
15408;SDS011;7803;48.130;13.788;2023-06-22T12:53:06;5.68;;;4.93;;
15408;SDS011;7803;48.130;13.788;2023-06-22T12:56:09;5.43;;;4.93;;
15408;SDS011;7803;48.130;13.788;2023-06-22T12:59:11;5.10;;;4.60;;
15408;SDS011;7803;48.130;13.788;2023-06-22T13:02:13;5.25;;;4.40;;
15408;SDS011;7803;48.130;13.788;2023-06-22T13:05:15;5.53;;;4.97;;
15408;SDS011;7803;48.130;13.788;2023-06-22T13:08:17;5.07;;;4.53;;
15408;SDS011;7803;48.130;13.788;2023-06-22T13:11:21;5.20;;;4.70;;
15408;SDS011;7803;48.130;13.788;2023-06-22T13:14:23;5.78;;;4.90;;
15408;SDS011;7803;48.130;13.788;2023-06-22T13:17:25;5.00;;;4.50;;
15408;SDS011;7803;48.130;13.788;2023-06-22T13:20:28;5.53;;;4.78;;
15408;SDS011;7803;48.130;13.788;2023-06-22T13:23:30;5.72;;;4.55;;
15408;SDS011;7803;48.130;13.788;2023-06-22T13:26:34;5.30;;;4.75;;
15408;SDS011;7803;48.130;13.788;2023-06-22T13:29:36;4.93;;;4.53;;
15408;SDS011;7803;48.130;13.788;2023-06-22T13:32:38;6.45;;;4.90;;
15408;SDS011;7803;48.130;13.788;2023-06-22T13:35:41;4.75;;;4.35;;
15408;SDS011;7803;48.130;13.788;2023-06-22T13:38:43;5.18;;;4.68;;
15408;SDS011;7803;48.130;13.788;2023-06-22T13:41:47;5.70;;;5.05;;
15408;SDS011;7803;48.130;13.788;2023-06-22T13:44:49;4.90;;;4.50;;
15408;SDS011;7803;48.130;13.788;2023-06-22T13:47:51;5.40;;;4.40;;
15408;SDS011;7803;48.130;13.788;2023-06-22T13:50:55;5.85;;;4.88;;
15408;SDS011;7803;48.130;13.788;2023-06-22T13:53:57;5.78;;;4.85;;
15408;SDS011;7803;48.130;13.788;2023-06-22T13:57:00;5.38;;;4.88;;
15408;SDS011;7803;48.130;13.788;2023-06-22T14:00:03;4.95;;;4.45;;
15408;SDS011;7803;48.130;13.788;2023-06-22T14:03:06;5.45;;;4.90;;
15408;SDS011;7803;48.130;13.788;2023-06-22T14:06:08;5.20;;;4.70;;
15408;SDS011;7803;48.130;13.788;2023-06-22T14:09:11;5.45;;;4.35;;
15408;SDS011;7803;48.130;13.788;2023-06-22T14:12:14;5.50;;;5.00;;
15408;SDS011;7803;48.130;13.788;2023-06-22T14:15:17;5.07;;;4.57;;
15408;SDS011;7803;48.130;13.788;2023-06-22T14:18:19;6.82;;;5.10;;
15408;SDS011;7803;48.130;13.788;2023-06-22T14:21:22;5.53;;;5.00;;
15408;SDS011;7803;48.130;13.788;2023-06-22T14:24:24;4.80;;;4.38;;
15408;SDS011;7803;48.130;13.788;2023-06-22T14:27:28;5.30;;;4.35;;
15408;SDS011;7803;48.130;13.788;2023-06-22T14:30:30;5.05;;;4.55;;
15408;SDS011;7803;48.130;13.788;2023-06-22T14:33:32;5.68;;;4.60;;
15408;SDS011;7803;48.130;13.788;2023-06-22T14:36:34;4.95;;;4.45;;
15408;SDS011;7803;48.130;13.788;2023-06-22T14:39:36;5.47;;;4.60;;
15408;SDS011;7803;48.130;13.788;2023-06-22T14:42:40;5.22;;;4.70;;
15408;SDS011;7803;48.130;13.788;2023-06-22T14:45:43;5.00;;;4.38;;
15408;SDS011;7803;48.130;13.788;2023-06-22T14:48:45;5.18;;;4.78;;
15408;SDS011;7803;48.130;13.788;2023-06-22T14:51:46;6.00;;;4.40;;
15408;SDS011;7803;48.130;13.788;2023-06-22T14:54:48;4.93;;;4.43;;
15408;SDS011;7803;48.130;13.788;2023-06-22T14:57:53;5.95;;;4.78;;
15408;SDS011;7803;48.130;13.788;2023-06-22T15:00:55;5.47;;;4.68;;
15408;SDS011;7803;48.130;13.788;2023-06-22T15:03:57;5.00;;;4.50;;
15408;SDS011;7803;48.130;13.788;2023-06-22T15:06:59;5.93;;;4.80;;
15408;SDS011;7803;48.130;13.788;2023-06-22T15:10:01;5.10;;;4.60;;
15408;SDS011;7803;48.130;13.788;2023-06-22T15:13:05;4.97;;;4.47;;
15408;SDS011;7803;48.130;13.788;2023-06-22T15:16:07;4.78;;;4.28;;
15408;SDS011;7803;48.130;13.788;2023-06-22T15:19:10;5.10;;;4.60;;
15408;SDS011;7803;48.130;13.788;2023-06-22T15:22:12;4.93;;;4.47;;
15408;SDS011;7803;48.130;13.788;2023-06-22T15:25:16;5.15;;;4.63;;
15408;SDS011;7803;48.130;13.788;2023-06-22T15:28:20;4.65;;;4.25;;
15408;SDS011;7803;48.130;13.788;2023-06-22T15:31:22;4.63;;;4.20;;
15408;SDS011;7803;48.130;13.788;2023-06-22T15:34:24;5.22;;;4.72;;
15408;SDS011;7803;48.130;13.788;2023-06-22T15:37:26;5.18;;;4.78;;
15408;SDS011;7803;48.130;13.788;2023-06-22T15:40:28;5.53;;;4.70;;
15408;SDS011;7803;48.130;13.788;2023-06-22T15:43:31;5.35;;;4.85;;
15408;SDS011;7803;48.130;13.788;2023-06-22T15:46:33;5.70;;;4.85;;
15408;SDS011;7803;48.130;13.788;2023-06-22T15:49:35;4.97;;;4.50;;
15408;SDS011;7803;48.130;13.788;2023-06-22T15:52:37;7.05;;;5.20;;
15408;SDS011;7803;48.130;13.788;2023-06-22T15:55:40;5.68;;;4.95;;
15408;SDS011;7803;48.130;13.788;2023-06-22T15:58:44;5.85;;;5.13;;
15408;SDS011;7803;48.130;13.788;2023-06-22T16:01:46;5.10;;;4.60;;
15408;SDS011;7803;48.130;13.788;2023-06-22T16:04:48;5.20;;;4.70;;
15408;SDS011;7803;48.130;13.788;2023-06-22T16:07:50;5.18;;;4.32;;
15408;SDS011;7803;48.130;13.788;2023-06-22T16:10:52;6.78;;;4.53;;
15408;SDS011;7803;48.130;13.788;2023-06-22T16:13:56;5.10;;;4.60;;
15408;SDS011;7803;48.130;13.788;2023-06-22T16:16:58;6.07;;;4.78;;
15408;SDS011;7803;48.130;13.788;2023-06-22T16:20:00;5.15;;;4.65;;
15408;SDS011;7803;48.130;13.788;2023-06-22T16:23:02;5.45;;;4.95;;
15408;SDS011;7803;48.130;13.788;2023-06-22T16:26:04;4.72;;;4.32;;
15408;SDS011;7803;48.130;13.788;2023-06-22T16:29:07;5.88;;;4.90;;
15408;SDS011;7803;48.130;13.788;2023-06-22T16:32:10;5.10;;;4.60;;
15408;SDS011;7803;48.130;13.788;2023-06-22T16:35:12;6.20;;;4.82;;
15408;SDS011;7803;48.130;13.788;2023-06-22T16:38:15;5.85;;;5.10;;
15408;SDS011;7803;48.130;13.788;2023-06-22T16:41:17;6.65;;;5.05;;
15408;SDS011;7803;48.130;13.788;2023-06-22T16:44:21;5.53;;;4.95;;
15408;SDS011;7803;48.130;13.788;2023-06-22T16:47:22;5.30;;;4.32;;
15408;SDS011;7803;48.130;13.788;2023-06-22T16:50:25;5.97;;;5.05;;
15408;SDS011;7803;48.130;13.788;2023-06-22T16:53:27;5.32;;;4.65;;
15408;SDS011;7803;48.130;13.788;2023-06-22T16:56:29;5.22;;;4.72;;
15408;SDS011;7803;48.130;13.788;2023-06-22T16:59:33;5.25;;;4.75;;
15408;SDS011;7803;48.130;13.788;2023-06-22T17:02:35;5.03;;;4.50;;
15408;SDS011;7803;48.130;13.788;2023-06-22T17:05:44;5.82;;;4.88;;
15408;SDS011;7803;48.130;13.788;2023-06-22T17:08:46;5.80;;;4.80;;
15408;SDS011;7803;48.130;13.788;2023-06-22T17:11:50;5.25;;;4.75;;
15408;SDS011;7803;48.130;13.788;2023-06-22T17:14:55;5.32;;;4.82;;
15408;SDS011;7803;48.130;13.788;2023-06-22T17:17:59;5.10;;;4.60;;
15408;SDS011;7803;48.130;13.788;2023-06-22T17:21:03;5.55;;;4.72;;
15408;SDS011;7803;48.130;13.788;2023-06-22T17:24:05;5.57;;;4.95;;
15408;SDS011;7803;48.130;13.788;2023-06-22T17:27:07;5.68;;;5.10;;
15408;SDS011;7803;48.130;13.788;2023-06-22T17:30:11;6.05;;;4.85;;
15408;SDS011;7803;48.130;13.788;2023-06-22T17:33:16;5.55;;;5.00;;
15408;SDS011;7803;48.130;13.788;2023-06-22T17:36:21;5.45;;;4.75;;
15408;SDS011;7803;48.130;13.788;2023-06-22T17:39:23;5.80;;;5.20;;
15408;SDS011;7803;48.130;13.788;2023-06-22T17:42:26;6.32;;;5.10;;
15408;SDS011;7803;48.130;13.788;2023-06-22T17:45:30;6.68;;;5.00;;
15408;SDS011;7803;48.130;13.788;2023-06-22T17:48:33;5.30;;;4.80;;
15408;SDS011;7803;48.130;13.788;2023-06-22T17:51:35;5.30;;;4.80;;
15408;SDS011;7803;48.130;13.788;2023-06-22T17:54:37;5.43;;;4.93;;
15408;SDS011;7803;48.130;13.788;2023-06-22T17:57:40;5.93;;;5.22;;
15408;SDS011;7803;48.130;13.788;2023-06-22T18:00:48;5.30;;;4.63;;
15408;SDS011;7803;48.130;13.788;2023-06-22T18:03:50;5.78;;;5.18;;
15408;SDS011;7803;48.130;13.788;2023-06-22T18:06:52;5.88;;;5.28;;
15408;SDS011;7803;48.130;13.788;2023-06-22T18:09:55;7.40;;;5.70;;
15408;SDS011;7803;48.130;13.788;2023-06-22T18:12:59;5.68;;;5.13;;
15408;SDS011;7803;48.130;13.788;2023-06-22T18:16:05;5.80;;;5.22;;
15408;SDS011;7803;48.130;13.788;2023-06-22T18:19:07;5.35;;;4.85;;
15408;SDS011;7803;48.130;13.788;2023-06-22T18:22:10;6.13;;;5.38;;